Time;durP1;ratioP1;P1;durP2;ratioP2;P2;SDS_P1;SDS_P2;PMS_P1;PMS_P2;Temp;Humidity;BMP_temperature;BMP_pressure;BME280_temperature;BME280_humidity;BME280_pressure;Samples;Min_cycle;Max_cycle;Signal;HPM_P1;HPM_P2
2021/12/13 00:01:41;;;;;;;95.15;38.30;;;;;;;0.84;80.54;102122.63;1705831;83;21092;-74
2021/12/13 00:04:28;;;;;;;109.17;40.23;;;;;;;0.86;80.55;102123.26;1700857;83;21674;-74
2021/12/13 00:07:03;;;;;;;112.20;42.23;;;;;;;0.86;80.53;102123.66;1705239;84;21141;-74
2021/12/13 00:09:33;;;;;;;104.63;38.65;;;;;;;0.85;80.47;102122.76;1705763;82;22582;-74
2021/12/13 00:12:03;;;;;;;100.42;39.70;;;;;;;0.86;80.46;102128.45;1704803;83;21233;-74
2021/12/13 00:14:39;;;;;;;99.03;39.45;;;;;;;0.87;80.55;102126.39;1706247;83;21054;-74
2021/12/13 00:17:13;;;;;;;99.58;38.20;;;;;;;0.90;80.49;102120.19;1706200;83;21125;-74
2021/12/13 00:19:55;;;;;;;104.92;40.92;;;;;;;0.91;80.51;102119.39;1705519;83;21140;-73
2021/12/13 00:22:45;;;;;;;101.45;41.30;;;;;;;0.89;80.43;102114.46;1706012;83;21777;-74
2021/12/13 00:25:20;;;;;;;96.40;38.28;;;;;;;0.91;80.46;102115.50;1705801;84;21737;-73
2021/12/13 00:27:57;;;;;;;100.35;38.85;;;;;;;0.90;80.43;102122.77;1705911;84;21551;-73
2021/12/13 00:30:55;;;;;;;109.40;41.73;;;;;;;0.90;80.39;102129.63;1705743;83;21143;-74
2021/12/13 00:34:17;;;;;;;101.05;38.50;;;;;;;0.87;80.40;102125.09;1705440;83;21205;-74
2021/12/13 00:36:54;;;;;;;102.07;38.02;;;;;;;0.84;80.39;102130.00;1705390;84;22049;-74
2021/12/13 00:39:31;;;;;;;95.62;38.50;;;;;;;0.83;80.43;102138.57;1705762;84;21088;-74
2021/12/13 00:42:01;;;;;;;100.50;38.13;;;;;;;0.82;80.54;102136.74;1706266;83;21087;-74
2021/12/13 00:44:37;;;;;;;94.30;38.50;;;;;;;0.84;80.51;102127.80;1708514;83;21348;-74
2021/12/13 00:47:09;;;;;;;98.62;39.55;;;;;;;0.84;80.52;102135.58;1716693;83;21109;-74
2021/12/13 00:49:38;;;;;;;91.63;37.70;;;;;;;0.82;80.46;102125.47;1715457;83;21871;-73
2021/12/13 00:52:08;;;;;;;95.20;38.53;;;;;;;0.81;80.48;102129.76;1715179;83;21082;-73
2021/12/13 00:54:38;;;;;;;94.45;37.08;;;;;;;0.81;80.46;102118.45;1714969;82;21545;-74
2021/12/13 00:57:19;;;;;;;98.15;39.05;;;;;;;0.80;80.45;102116.66;1715307;83;21575;-74
2021/12/13 00:59:51;;;;;;;87.47;37.73;;;;;;;0.79;80.51;102127.42;1714784;82;21098;-74
2021/12/13 01:02:28;;;;;;;90.87;38.20;;;;;;;0.81;80.57;102127.16;1714853;83;21762;-74
2021/12/13 01:05:06;;;;;;;90.62;36.68;;;;;;;0.84;80.57;102122.63;1715179;82;21566;-74
2021/12/13 01:08:10;;;;;;;96.15;36.98;;;;;;;0.80;80.43;102121.45;1711910;82;21089;-73
2021/12/13 01:11:18;;;;;;;94.62;37.73;;;;;;;0.79;80.42;102120.95;1686193;83;21065;-74
2021/12/13 01:13:55;;;;;;;;;;;;;;;0.78;80.47;102121.70;1717403;82;21093;-74
2021/12/13 01:16:51;;;;;;;94.97;38.30;;;;;;;0.78;80.43;102127.78;1714770;82;21801;-74
2021/12/13 01:22:22;;;;;;;99.22;38.92;;;;;;;0.76;80.42;102122.86;1714746;83;21118;-74
2021/12/13 01:27:33;;;;;;;99.67;38.15;;;;;;;0.74;80.44;102109.27;1715421;82;21481;-74
2021/12/13 01:29:59;;;;;;;92.90;37.08;;;;;;;0.71;80.44;102112.88;1709004;83;21710;-74
2021/12/13 01:32:37;;;;;;;93.27;38.13;;;;;;;0.71;80.44;102118.06;1715211;83;21070;-73
2021/12/13 01:35:05;;;;;;;95.70;37.98;;;;;;;0.70;80.50;102121.05;1715071;82;21204;-74
2021/12/13 01:37:35;;;;;;;88.12;37.50;;;;;;;0.70;80.54;102119.75;1714984;83;22430;-73
2021/12/13 01:40:12;;;;;;;92.20;37.00;;;;;;;0.70;80.54;102119.75;1715380;83;21062;-74
2021/12/13 01:42:38;;;;;;;91.97;36.45;;;;;;;0.68;80.45;102123.89;1715316;83;22571;-74
2021/12/13 01:45:13;;;;;;;92.60;37.13;;;;;;;0.67;80.43;102117.28;1711061;83;21068;-73
2021/12/13 01:47:46;;;;;;;88.62;37.42;;;;;;;0.65;80.44;102114.55;1705624;84;21088;-73
2021/12/13 01:50:28;;;;;;;97.88;37.45;;;;;;;0.63;80.46;102112.22;1705622;83;21111;-73
2021/12/13 01:52:55;;;;;;;97.00;38.30;;;;;;;0.61;80.39;102105.99;1705877;82;21065;-73
2021/12/13 01:55:29;;;;;;;93.62;38.38;;;;;;;0.56;80.34;102109.50;1705786;83;21833;-74
2021/12/13 01:58:37;;;;;;;99.55;38.95;;;;;;;0.56;80.45;102112.45;1705577;83;21030;-73
2021/12/13 02:01:09;;;;;;;93.03;39.67;;;;;;;0.50;80.39;102111.53;1705081;82;21678;-73
2021/12/13 02:04:01;;;;;;;99.75;39.45;;;;;;;0.46;80.41;102112.05;1703479;83;21555;-73
2021/12/13 02:06:39;;;;;;;103.95;38.48;;;;;;;0.39;80.32;102112.27;1705556;82;21081;-72
2021/12/13 02:09:17;;;;;;;104.17;40.05;;;;;;;0.31;80.40;102114.19;1705908;82;21760;-74
2021/12/13 02:11:49;;;;;;;109.30;42.58;;;;;;;0.26;80.52;102108.98;1702336;84;21682;-74
2021/12/13 02:14:18;;;;;;;99.45;40.12;;;;;;;0.23;80.62;102110.03;1705937;83;21658;-74
2021/12/13 02:17:01;;;;;;;109.27;40.95;;;;;;;0.23;80.69;102106.55;1706131;83;21137;-74
2021/12/13 02:19:35;;;;;;;111.88;43.30;;;;;;;0.23;80.80;102107.84;1706121;83;21358;-73
2021/12/13 02:22:09;;;;;;;112.85;43.58;;;;;;;0.23;80.83;102104.86;1696071;84;21078;-74
2021/12/13 02:24:40;;;;;;;105.17;39.63;;;;;;;0.26;80.97;102108.09;1704991;83;21805;-74
2021/12/13 02:27:07;;;;;;;112.28;42.35;;;;;;;0.27;80.94;102104.73;1705822;84;21124;-74
2021/12/13 02:29:37;;;;;;;122.78;44.45;;;;;;;0.27;80.96;102113.41;1705887;83;21156;-73
2021/12/13 02:32:08;;;;;;;96.60;39.78;;;;;;;0.32;81.08;102114.73;1705217;83;22305;-74
2021/12/13 02:34:42;;;;;;;103.20;40.60;;;;;;;0.36;81.05;102113.32;1705905;84;22398;-74
2021/12/13 02:37:10;;;;;;;98.97;38.78;;;;;;;0.41;81.11;102121.08;1705791;83;21586;-74
2021/12/13 02:39:44;;;;;;;99.80;38.42;;;;;;;0.48;81.11;102129.02;1705874;84;21271;-73
2021/12/13 02:42:11;;;;;;;99.60;37.35;;;;;;;0.50;81.11;102123.19;1706292;84;21076;-74
2021/12/13 02:44:48;;;;;;;105.15;39.83;;;;;;;0.55;81.10;102124.50;1706499;83;21804;-74
2021/12/13 02:47:23;;;;;;;95.30;38.55;;;;;;;0.60;81.03;102125.28;1714904;83;22591;-73
2021/12/13 02:49:50;;;;;;;93.37;38.65;;;;;;;0.63;81.07;102122.58;1697170;83;21090;-73
2021/12/13 02:52:19;;;;;;;94.77;37.55;;;;;;;0.65;80.99;102122.72;1689548;84;21043;-73
2021/12/13 02:54:56;;;;;;;92.95;37.15;;;;;;;0.68;80.95;102127.78;1706333;83;21356;-73
2021/12/13 02:57:38;;;;;;;91.82;36.45;;;;;;;0.74;81.00;102133.48;1714945;83;21102;-73
2021/12/13 03:00:16;;;;;;;95.55;36.30;;;;;;;0.76;80.90;102130.64;1715530;82;21793;-73
2021/12/13 03:02:44;;;;;;;86.32;38.02;;;;;;;0.77;80.88;102123.80;1715322;83;21416;-73
2021/12/13 03:05:16;;;;;;;97.27;37.48;;;;;;;0.80;80.86;102123.14;1715681;83;21137;-73
2021/12/13 03:07:47;;;;;;;102.25;37.88;;;;;;;0.80;80.82;102120.16;1715692;82;21078;-73
2021/12/13 03:10:19;;;;;;;99.77;38.02;;;;;;;0.84;80.84;102126.51;1715308;82;21153;-73
2021/12/13 03:12:48;;;;;;;93.25;38.98;;;;;;;0.85;80.76;102125.75;1714464;82;22192;-73
2021/12/13 03:15:18;;;;;;;100.58;39.78;;;;;;;0.85;80.74;102122.76;1715141;82;21623;-73
2021/12/13 03:17:52;;;;;;;102.87;41.18;;;;;;;0.86;80.79;102118.08;1714046;83;21125;-73
2021/12/13 03:20:43;;;;;;;104.35;40.25;;;;;;;0.87;80.67;102120.30;1715220;82;21054;-73
2021/12/13 03:23:25;;;;;;;98.50;38.65;;;;;;;0.87;80.71;102115.13;1714739;82;21657;-74
2021/12/13 03:26:10;;;;;;;107.47;40.45;;;;;;;0.87;80.74;102117.31;1714890;83;21813;-74
2021/12/13 03:29:03;;;;;;;95.05;38.15;;;;;;;0.88;80.69;102117.84;1715160;82;21647;-74
2021/12/13 03:31:38;;;;;;;103.83;40.88;;;;;;;0.87;80.66;102113.42;1715249;83;21556;-73
2021/12/13 03:34:15;;;;;;;103.75;41.45;;;;;;;0.87;80.59;102119.91;1715270;83;21136;-74
2021/12/13 03:37:09;;;;;;;104.05;39.80;;;;;;;0.86;80.61;102121.97;1705597;82;21576;-74
2021/12/13 03:39:47;;;;;;;99.28;39.18;;;;;;;0.84;80.55;102123.92;1688337;83;21769;-73
2021/12/13 03:42:25;;;;;;;102.42;38.98;;;;;;;0.81;80.55;102121.05;1715160;83;21073;-74
2021/12/13 03:44:53;;;;;;;99.90;40.00;;;;;;;0.78;80.54;102122.60;1714491;83;21348;-74
2021/12/13 03:47:34;;;;;;;107.72;39.98;;;;;;;0.68;80.49;102107.45;1705334;83;21116;-74
2021/12/13 03:50:02;;;;;;;101.05;39.18;;;;;;;0.69;80.40;102115.72;1705680;83;21072;-74
2021/12/13 03:52:30;;;;;;;107.25;43.38;;;;;;;0.65;80.34;102122.72;1705813;83;22598;-75
2021/12/13 03:54:59;;;;;;;94.32;39.83;;;;;;;0.49;80.34;102105.84;1705724;83;21689;-74
2021/12/13 03:57:26;;;;;;;108.55;40.43;;;;;;;0.55;80.39;102124.91;1705888;84;21539;-74
2021/12/13 03:59:52;;;;;;;101.72;38.80;;;;;;;0.52;80.46;102125.92;1706065;84;21368;-74
2021/12/13 04:02:27;;;;;;;105.17;41.85;;;;;;;0.54;80.64;102123.07;1705867;82;21089;-74
2021/12/13 04:04:58;;;;;;;96.02;38.25;;;;;;;0.44;80.58;102107.12;1706038;83;21807;-74
2021/12/13 04:07:30;;;;;;;105.30;40.73;;;;;;;0.53;80.56;102129.95;1703813;83;21824;-74
2021/12/13 04:10:00;;;;;;;110.88;42.13;;;;;;;0.48;80.52;102137.69;1706267;83;21242;-74
2021/12/13 04:12:41;;;;;;;107.50;42.45;;;;;;;0.46;80.55;102141.83;1706187;83;21623;-74
2021/12/13 04:15:03;;;;;;;106.75;42.35;;;;;;;0.40;80.58;102137.81;1704770;83;21072;-73
2021/12/13 04:17:44;;;;;;;107.30;40.58;;;;;;;0.38;80.71;102138.97;1706195;84;22436;-74
2021/12/13 04:20:11;;;;;;;110.48;43.15;;;;;;;0.36;80.78;102134.94;1705149;82;21065;-76
2021/12/13 04:22:40;;;;;;;118.17;46.98;;;;;;;0.35;80.77;102138.29;1704905;84;21108;-74
2021/12/13 04:25:17;;;;;;;127.92;52.65;;;;;;;0.37;80.83;102138.43;1705576;84;21356;-75
2021/12/13 04:27:59;;;;;;;148.93;57.80;;;;;;;0.36;80.84;102144.00;1705845;83;21160;-74
2021/12/13 04:30:43;;;;;;;107.83;45.30;;;;;;;0.40;81.01;102144.29;1700575;84;22681;-75
2021/12/13 04:33:30;;;;;;;114.28;44.73;;;;;;;0.45;81.04;102146.88;1705915;83;21088;-75
2021/12/13 04:36:31;;;;;;;96.08;40.52;;;;;;;0.47;80.99;102146.25;1697413;83;21122;-76
2021/12/13 04:39:17;;;;;;;105.63;44.23;;;;;;;0.47;80.98;102151.44;1697594;83;21081;-75
2021/12/13 04:41:51;;;;;;;117.85;47.58;;;;;;;0.51;81.05;102157.80;1697478;83;21186;-75
2021/12/13 04:44:23;;;;;;;121.55;49.33;;;;;;;0.55;81.09;102157.29;1697671;83;22575;-75
2021/12/13 04:46:55;;;;;;;114.20;44.77;;;;;;;0.55;81.06;102156.89;1667907;83;21116;-74
2021/12/13 04:49:28;;;;;;;109.15;46.73;;;;;;;0.57;81.07;102157.94;1692329;83;21096;-75
2021/12/13 04:52:04;;;;;;;120.65;48.30;;;;;;;0.55;81.00;102160.78;1684663;83;21193;-73
2021/12/13 04:54:37;;;;;;;115.45;48.10;;;;;;;0.57;81.03;102167.39;1677637;83;21634;-73
2021/12/13 04:57:04;;;;;;;121.90;46.98;;;;;;;0.61;81.13;102165.59;1705102;82;22427;-73
2021/12/13 04:59:31;;;;;;;128.93;49.15;;;;;;;0.61;81.01;102157.81;1686337;84;21226;-73
2021/12/13 05:02:00;;;;;;;120.17;48.68;;;;;;;0.61;80.99;102167.28;1686798;83;21101;-72
2021/12/13 05:04:30;;;;;;;117.17;46.35;;;;;;;0.61;81.00;102166.89;1686653;83;21120;-74
2021/12/13 05:06:57;;;;;;;120.70;45.88;;;;;;;0.62;80.95;102162.23;1686336;84;21145;-73
2021/12/13 05:09:27;;;;;;;118.40;47.70;;;;;;;0.64;81.01;102163.64;1686508;83;21761;-74
2021/12/13 05:12:10;;;;;;;113.45;46.37;;;;;;;0.65;80.97;102165.08;1684087;84;21132;-73
2021/12/13 05:14:40;;;;;;;114.15;45.80;;;;;;;0.68;81.03;102174.43;1701037;83;21069;-74
2021/12/13 05:17:15;;;;;;;111.17;43.42;;;;;;;0.69;80.96;102179.22;1702248;83;21623;-73
2021/12/13 05:19:50;;;;;;;104.92;42.75;;;;;;;0.70;80.95;102169.39;1703163;84;21104;-73
2021/12/13 05:22:17;;;;;;;113.03;43.00;;;;;;;0.69;80.95;102172.34;1703444;84;21756;-75
2021/12/13 05:24:58;;;;;;;110.65;44.93;;;;;;;0.56;80.93;102146.13;1702813;83;21153;-75
2021/12/13 05:27:31;;;;;;;116.57;44.38;;;;;;;0.74;80.95;102181.83;1678539;84;21174;-76
2021/12/13 05:30:12;;;;;;;105.07;44.90;;;;;;;0.77;80.95;102175.23;1702467;82;21096;-75
2021/12/13 05:32:51;;;;;;;112.52;43.35;;;;;;;0.79;80.93;102172.78;1702533;82;21073;-79
2021/12/13 05:35:53;;;;;;;115.62;44.98;;;;;;;0.80;80.89;102179.77;1702846;84;21859;-80
2021/12/13 05:38:31;;;;;;;105.32;41.63;;;;;;;0.81;80.78;102180.30;1691450;83;21100;-76
2021/12/13 05:41:01;;;;;;;107.30;44.60;;;;;;;0.81;80.81;102187.14;1677354;84;25955;-77
2021/12/13 05:43:41;;;;;;;106.40;44.98;;;;;;;0.84;80.87;102184.44;1702659;84;21092;-77
2021/12/13 05:46:10;;;;;;;100.25;44.25;;;;;;;0.86;80.81;102180.29;1701582;83;21076;-76
2021/12/13 05:48:52;;;;;;;114.32;44.85;;;;;;;0.83;80.72;102183.94;1699224;84;22407;-76
2021/12/13 05:51:41;;;;;;;127.55;51.02;;;;;;;0.79;80.68;102183.16;1699275;83;21105;-73
2021/12/13 05:54:09;;;;;;;126.60;51.42;;;;;;;0.78;80.75;102180.02;1695343;83;21093;-73
2021/12/13 05:56:45;;;;;;;116.28;50.70;;;;;;;0.77;80.78;102175.63;1699735;84;21084;-82
2021/12/13 05:59:25;;;;;;;115.25;49.50;;;;;;;0.77;80.88;102176.93;1700091;83;21169;-81
2021/12/13 06:02:16;;;;;;;112.05;48.48;;;;;;;0.78;80.83;102177.03;1671614;83;21112;-81
2021/12/13 06:05:01;;;;;;;112.75;48.83;;;;;;;0.76;80.84;102178.98;1700087;84;21098;-74
2021/12/13 06:07:34;;;;;;;112.32;49.90;;;;;;;0.78;80.94;102180.02;1699738;84;21132;-74
2021/12/13 06:10:10;;;;;;;120.02;49.25;;;;;;;0.76;80.86;102175.09;1696434;84;21148;-74
2021/12/13 06:12:43;;;;;;;115.00;46.15;;;;;;;0.76;80.89;102179.88;1699901;84;21148;-74
2021/12/13 06:15:21;;;;;;;109.63;46.10;;;;;;;0.77;80.95;102186.00;1699337;82;22598;-73
2021/12/13 06:18:23;;;;;;;109.03;45.00;;;;;;;0.82;81.00;102193.77;1718352;82;21367;-73
2021/12/13 06:21:23;;;;;;;114.62;43.30;;;;;;;0.85;80.93;102193.14;1671292;84;21103;-74
2021/12/13 06:23:48;;;;;;;106.07;42.20;;;;;;;0.89;80.92;102190.04;1636171;85;21189;-74
2021/12/13 06:26:15;;;;;;;105.97;45.65;;;;;;;0.91;80.88;102191.08;1691116;83;21039;-73
2021/12/13 06:28:45;;;;;;;113.15;45.38;;;;;;;0.87;80.70;102187.70;1719857;83;22505;-73
2021/12/13 06:31:16;;;;;;;116.03;44.35;;;;;;;0.88;80.83;102194.69;1719439;82;21145;-73
2021/12/13 06:34:00;;;;;;;103.97;44.20;;;;;;;0.90;80.88;102192.77;1691306;83;21097;-74
2021/12/13 06:36:48;;;;;;;97.65;43.25;;;;;;;0.92;80.84;102194.17;1719591;82;21092;-73
2021/12/13 06:39:22;;;;;;;108.10;44.20;;;;;;;0.95;80.83;102195.35;1687986;83;21564;-73
2021/12/13 06:41:51;;;;;;;111.13;46.80;;;;;;;0.97;80.85;102197.69;1720443;83;21714;-74
2021/12/13 06:44:43;;;;;;;111.22;47.73;;;;;;;1.00;80.98;102190.98;1719956;83;21374;-73
2021/12/13 06:47:13;;;;;;;106.05;44.70;;;;;;;1.00;80.85;102186.69;1718536;83;21072;-73
2021/12/13 06:49:57;;;;;;;105.40;45.15;;;;;;;1.05;80.90;102192.26;1686052;83;21139;-73
2021/12/13 06:52:32;;;;;;;101.80;43.50;;;;;;;1.03;80.86;102195.11;1717776;82;21139;-74
2021/12/13 06:55:11;;;;;;;111.08;47.00;;;;;;;1.11;80.88;102205.78;1717657;83;21788;-73
2021/12/13 06:57:48;;;;;;;100.42;44.70;;;;;;;1.16;80.91;102207.99;1718050;83;21101;-73
2021/12/13 07:00:28;;;;;;;103.53;47.98;;;;;;;1.19;80.83;102211.23;1717846;82;21128;-73
2021/12/13 07:03:00;;;;;;;116.17;52.05;;;;;;;1.16;80.79;102201.88;1717727;82;21128;-73
2021/12/13 07:05:46;;;;;;;133.30;59.70;;;;;;;1.24;80.76;102212.54;1717542;83;21084;-74
2021/12/13 07:08:21;;;;;;;126.05;59.35;;;;;;;1.26;80.73;102207.09;1717440;83;21786;-73
2021/12/13 07:11:07;;;;;;;131.55;63.75;;;;;;;1.26;80.70;102205.80;1717394;82;22208;-73
2021/12/13 07:13:55;;;;;;;134.32;62.83;;;;;;;1.27;80.71;102206.30;1717892;82;21610;-73
2021/12/13 07:16:33;;;;;;;124.22;58.63;;;;;;;1.26;80.68;102211.34;1717762;82;21076;-73
2021/12/13 07:19:18;;;;;;;116.33;54.65;;;;;;;1.30;80.80;102218.64;1717718;82;21701;-73
2021/12/13 07:21:51;;;;;;;122.22;51.58;;;;;;;1.32;80.80;102217.98;1716759;83;21728;-73
2021/12/13 07:24:22;;;;;;;116.60;54.80;;;;;;;1.36;80.87;102221.36;1717630;82;21516;-73
2021/12/13 07:26:59;;;;;;;114.72;54.80;;;;;;;1.42;80.88;102222.67;1708344;82;21139;-73
2021/12/13 07:29:40;;;;;;;109.12;52.75;;;;;;;1.47;80.94;102227.87;1717704;82;21068;-73
2021/12/13 07:32:30;;;;;;;105.83;50.48;;;;;;;1.55;80.85;102232.91;1717906;83;21060;-74
2021/12/13 07:35:08;;;;;;;112.85;53.00;;;;;;;1.34;80.77;102186.59;1716915;82;21797;-73
2021/12/13 07:37:45;;;;;;;129.82;63.00;;;;;;;1.56;80.76;102223.46;1717946;82;21068;-73
2021/12/13 07:40:29;;;;;;;145.07;70.72;;;;;;;1.71;80.82;102233.84;1717884;82;21087;-73
2021/12/13 07:43:10;;;;;;;146.60;71.92;;;;;;;1.81;80.83;102238.52;1718069;83;21068;-73
2021/12/13 07:46:06;;;;;;;148.07;69.47;;;;;;;1.89;80.74;102238.35;1718016;83;21053;-73
2021/12/13 07:48:39;;;;;;;127.27;63.05;;;;;;;1.95;80.68;102234.06;1717541;83;22470;-73
2021/12/13 07:51:28;;;;;;;134.00;67.12;;;;;;;2.00;80.53;102239.26;1714763;83;21084;-73
2021/12/13 07:54:05;;;;;;;131.10;65.55;;;;;;;2.02;80.46;102241.59;1717609;82;21150;-73
2021/12/13 07:56:43;;;;;;;136.35;64.72;;;;;;;2.09;80.45;102238.73;1718111;82;21091;-73
2021/12/13 07:59:18;;;;;;;130.85;62.95;;;;;;;2.14;80.40;102244.32;1718189;82;21115;-73
2021/12/13 08:02:07;;;;;;;130.32;58.15;;;;;;;2.19;80.39;102246.88;1718087;83;21763;-73
2021/12/13 08:04:54;;;;;;;122.45;56.80;;;;;;;2.23;80.24;102250.25;1717740;82;21057;-73
2021/12/13 08:07:43;;;;;;;114.35;51.90;;;;;;;2.24;80.17;102252.08;1717862;82;21545;-72
2021/12/13 08:10:23;;;;;;;110.12;49.73;;;;;;;2.29;80.20;102244.65;1717782;83;21085;-72
2021/12/13 08:13:00;;;;;;;108.67;50.20;;;;;;;2.33;80.10;102247.64;1718530;83;21666;-72
2021/12/13 08:15:41;;;;;;;106.17;51.37;;;;;;;2.36;80.04;102247.37;1717965;82;22014;-72
2021/12/13 08:18:30;;;;;;;108.10;51.33;;;;;;;2.34;79.87;102245.55;1718322;83;21084;-72
2021/12/13 08:21:06;;;;;;;108.67;49.20;;;;;;;2.35;79.81;102245.17;1688992;83;21555;-72
2021/12/13 08:23:36;;;;;;;103.53;47.50;;;;;;;2.36;79.84;102250.87;1717694;82;21112;-72
2021/12/13 08:26:05;;;;;;;100.67;47.93;;;;;;;2.41;79.88;102259.06;1717817;83;21068;-72
2021/12/13 08:28:50;;;;;;;91.90;45.35;;;;;;;2.47;79.93;102256.95;1718122;82;21761;-72
2021/12/13 08:31:33;;;;;;;97.62;44.83;;;;;;;2.55;79.83;102262.78;1716897;83;21128;-72
2021/12/13 08:34:04;;;;;;;103.67;45.55;;;;;;;2.59;79.63;102270.04;1717792;82;21175;-72
2021/12/13 08:36:36;;;;;;;101.38;46.68;;;;;;;2.63;79.68;102271.73;1717652;82;21072;-73
2021/12/13 08:39:19;;;;;;;104.05;47.73;;;;;;;2.71;79.71;102275.84;1717854;82;21076;-72
2021/12/13 08:42:03;;;;;;;109.70;48.40;;;;;;;2.79;79.65;102286.87;1718326;83;21826;-72
2021/12/13 08:44:37;;;;;;;113.35;48.13;;;;;;;2.87;79.58;102287.11;1718110;83;21077;-72
2021/12/13 08:47:14;;;;;;;109.92;48.10;;;;;;;2.93;79.46;102281.50;1700101;82;21060;-72
2021/12/13 08:49:45;;;;;;;121.72;51.92;;;;;;;2.97;79.22;102285.26;1717803;83;21052;-73
2021/12/13 08:52:30;;;;;;;122.62;50.33;;;;;;;2.97;79.17;102282.66;1717650;83;21108;-72
2021/12/13 08:55:14;;;;;;;115.28;50.60;;;;;;;2.98;79.09;102290.95;1717387;82;21849;-72
2021/12/13 08:57:53;;;;;;;;;;;;;;;2.97;78.98;102285.26;1720386;83;21542;-72
2021/12/13 09:00:37;;;;;;;117.17;49.23;;;;;;;2.95;78.89;102277.69;1717546;83;20212;-72
2021/12/13 09:03:31;;;;;;;119.35;49.50;;;;;;;2.91;78.80;102281.37;1716508;82;21060;-72
2021/12/13 09:06:21;;;;;;;121.72;52.43;;;;;;;2.92;78.89;102280.97;1718018;83;21657;-72
2021/12/13 09:08:53;;;;;;;129.42;54.05;;;;;;;2.95;78.79;102284.20;1718085;82;22552;-72
2021/12/13 09:11:55;;;;;;;135.70;56.28;;;;;;;2.97;78.84;102281.36;1717939;82;21177;-72
2021/12/13 09:14:30;;;;;;;134.55;60.25;;;;;;;2.99;78.87;102287.19;1716994;83;21513;-72
2021/12/13 09:17:10;;;;;;;132.78;56.68;;;;;;;3.03;78.69;102283.14;1718121;82;21618;-72
2021/12/13 09:19:48;;;;;;;123.38;56.77;;;;;;;3.07;78.77;102285.19;1717902;82;21297;-72
2021/12/13 09:22:32;;;;;;;122.85;57.50;;;;;;;3.11;78.76;102283.34;1717773;83;22540;-72
2021/12/13 09:25:34;;;;;;;130.32;57.65;;;;;;;3.21;78.74;102281.07;1712620;83;21066;-72
2021/12/13 09:28:11;;;;;;;122.50;52.95;;;;;;;3.26;78.76;102282.36;1718018;82;21052;-72
2021/12/13 09:30:43;;;;;;;124.55;53.90;;;;;;;3.29;78.53;102281.31;1717715;82;21060;-72
2021/12/13 09:33:21;;;;;;;115.15;51.80;;;;;;;3.29;78.45;102283.91;1715791;83;21084;-72
2021/12/13 09:35:56;;;;;;;112.83;51.48;;;;;;;3.34;78.43;102280.36;1717837;82;21784;-72
2021/12/13 09:38:33;;;;;;;115.03;49.75;;;;;;;3.38;78.44;102283.34;1717775;83;21718;-72
2021/12/13 09:41:18;;;;;;;108.52;48.33;;;;;;;3.49;78.45;102288.06;1717776;82;21542;-72
2021/12/13 09:43:58;;;;;;;103.97;49.70;;;;;;;3.58;78.42;102290.08;1718022;82;21615;-72
2021/12/13 09:46:46;;;;;;;104.15;50.35;;;;;;;3.65;78.27;102287.58;1719222;83;21336;-72
2021/12/13 09:49:27;;;;;;;117.60;51.95;;;;;;;3.69;78.01;102298.73;1713778;82;21813;-72
2021/12/13 09:52:36;;;;;;;109.25;53.00;;;;;;;3.73;77.92;102294.67;1716778;82;21159;-72
2021/12/13 09:55:23;;;;;;;115.12;51.73;;;;;;;3.79;77.94;102296.44;1717598;82;21543;-72
2021/12/13 09:58:07;;;;;;;112.65;49.30;;;;;;;3.83;77.81;102292.91;1717606;83;22381;-72
2021/12/13 10:00:43;;;;;;;118.35;54.83;;;;;;;3.88;77.78;102294.14;1718045;82;21037;-72
2021/12/13 10:03:15;;;;;;;123.82;60.75;;;;;;;3.92;77.73;102287.47;1717617;82;21796;-72
2021/12/13 10:05:45;;;;;;;125.92;63.13;;;;;;;3.91;77.51;102288.69;1719968;82;21904;-72
2021/12/13 10:08:20;;;;;;;124.75;61.25;;;;;;;3.91;77.44;102284.37;1717755;82;21096;-72
2021/12/13 10:10:55;;;;;;;117.35;57.20;;;;;;;3.92;77.45;102295.28;1717850;83;21049;-72
2021/12/13 10:13:27;;;;;;;128.07;58.20;;;;;;;3.97;77.45;102290.45;1717704;82;21341;-75
2021/12/13 10:16:02;;;;;;;113.77;51.65;;;;;;;4.05;77.49;102288.02;1717801;83;21791;-72
2021/12/13 10:18:32;;;;;;;106.43;49.18;;;;;;;4.10;77.32;102284.07;1717754;82;21156;-72
2021/12/13 10:21:12;;;;;;;118.90;51.45;;;;;;;4.15;77.35;102284.03;1717942;83;21607;-73
2021/12/13 10:23:44;;;;;;;105.07;50.65;;;;;;;4.24;77.35;102281.19;1717757;83;21451;-73
2021/12/13 10:26:11;;;;;;;99.42;47.08;;;;;;;4.29;77.13;102275.53;1717833;82;21073;-73
2021/12/13 10:28:40;;;;;;;103.15;47.88;;;;;;;4.35;77.09;102274.19;1717745;82;21755;-72
2021/12/13 10:31:17;;;;;;;92.27;44.18;;;;;;;4.39;76.95;102269.33;1717831;82;21165;-73
2021/12/13 10:33:44;;;;;;;101.55;46.90;;;;;;;4.40;76.85;102271.13;1717929;82;21108;-73
2021/12/13 10:36:10;;;;;;;104.17;47.80;;;;;;;4.44;76.78;102264.44;1718248;82;21059;-73
2021/12/13 10:38:43;;;;;;;99.75;45.67;;;;;;;4.43;76.68;102257.39;1718209;83;21073;-73
2021/12/13 10:41:14;;;;;;;97.22;46.15;;;;;;;4.45;76.65;102253.23;1717886;82;23146;-72
2021/12/13 10:43:48;;;;;;;100.65;48.15;;;;;;;4.45;76.60;102261.05;1717808;82;21025;-72
2021/12/13 10:46:20;;;;;;;99.35;47.08;;;;;;;4.45;76.60;102260.65;1717376;83;21057;-72
2021/12/13 10:48:51;;;;;;;103.70;47.60;;;;;;;4.52;76.58;102261.98;1717698;82;21077;-72
2021/12/13 10:51:24;;;;;;;102.02;48.17;;;;;;;4.50;76.39;102262.27;1717753;83;20994;-72
2021/12/13 10:53:52;;;;;;;106.58;51.45;;;;;;;4.44;76.34;102257.92;1718095;82;25287;-72
2021/12/13 10:56:38;;;;;;;114.85;51.42;;;;;;;4.42;76.31;102264.32;1717661;82;21111;-72
2021/12/13 10:59:10;;;;;;;104.23;51.68;;;;;;;4.37;76.33;102256.95;1717759;82;21032;-72
2021/12/13 11:01:40;;;;;;;103.22;50.83;;;;;;;4.36;76.42;102255.16;1718022;82;21041;-72
2021/12/13 11:04:11;;;;;;;110.52;51.75;;;;;;;4.35;76.41;102253.33;1717912;82;21080;-72
2021/12/13 11:06:39;;;;;;;101.78;49.55;;;;;;;4.32;76.26;102263.52;1717983;83;22637;-72
2021/12/13 11:09:08;;;;;;;106.07;52.13;;;;;;;4.27;76.31;102256.67;1686416;83;21622;-74
2021/12/13 11:11:39;;;;;;;111.05;53.08;;;;;;;4.24;76.30;102253.83;1717907;83;21555;-74
2021/12/13 11:14:09;;;;;;;119.30;57.43;;;;;;;4.25;76.42;102253.94;1692571;83;40631;-74
2021/12/13 11:16:40;;;;;;;122.60;57.65;;;;;;;4.28;76.44;102255.89;1717900;82;21072;-74
2021/12/13 11:19:12;;;;;;;123.85;55.50;;;;;;;4.29;76.26;102255.08;1718060;82;22604;-74
2021/12/13 11:21:41;;;;;;;112.10;51.33;;;;;;;4.25;76.28;102256.95;1717639;83;21590;-74
2021/12/13 11:24:10;;;;;;;97.85;46.15;;;;;;;4.16;76.10;102257.56;1717614;82;21614;-74
2021/12/13 11:26:43;;;;;;;97.50;45.65;;;;;;;4.17;76.32;102253.78;1693013;83;21593;-74
2021/12/13 11:29:11;;;;;;;97.05;45.17;;;;;;;4.16;76.23;102260.17;1717807;83;21139;-74
2021/12/13 11:32:05;;;;;;;102.17;47.43;;;;;;;4.14;76.24;102262.66;1717679;83;21682;-74
2021/12/13 11:35:11;;;;;;;94.32;44.27;;;;;;;4.12;76.24;102256.42;1717649;83;21136;-74
2021/12/13 11:38:26;;;;;;;97.00;44.77;;;;;;;4.09;76.13;102257.11;1717774;82;21738;-74
2021/12/13 11:41:35;;;;;;;86.42;42.03;;;;;;;4.06;76.16;102257.28;1717946;83;21626;-73
2021/12/13 11:44:40;;;;;;;93.67;42.88;;;;;;;4.06;76.27;102261.19;1717888;82;21072;-73
2021/12/13 11:47:55;;;;;;;98.60;44.93;;;;;;;4.08;76.23;102263.10;1717757;82;21770;-73
2021/12/13 11:50:59;;;;;;;85.85;42.53;;;;;;;4.08;76.32;102261.80;1716531;82;21147;-73
2021/12/13 11:54:10;;;;;;;91.15;42.05;;;;;;;4.15;76.31;102264.48;1717709;83;21076;-72
2021/12/13 11:57:14;;;;;;;86.35;43.33;;;;;;;4.17;76.20;102256.79;1718425;83;21505;-73
2021/12/13 12:00:15;;;;;;;93.12;44.42;;;;;;;4.14;76.08;102260.05;1718334;82;21633;-72
2021/12/13 12:03:16;;;;;;;96.78;44.77;;;;;;;4.11;76.03;102256.30;1717935;83;21930;-73
2021/12/13 12:06:15;;;;;;;90.60;43.15;;;;;;;4.11;76.13;102254.63;1657824;85;21128;-73
2021/12/13 12:09:34;;;;;;;96.25;46.95;;;;;;;4.09;76.04;102255.81;1717465;82;21694;-73